Cedar Key, FL (32625)

7:11 PM EDT on August 27, 2015 (GMT -0400)
Withlacoochee Gulf Preserve | | Change Station
CLOSE
Current Station
Personal Weather Station
Location: Yankeetown, FL
Elevation: 26 ft
Nearby Weather Stations

Elev 26 ft 29.03 °N, 82.73 °W | Updated 4 minutes ago

Partly Cloudy
Partly Cloudy
86.8 °F
Feels Like 101 °F
N
1.0
Wind Variable Wind from SW
Gusts 5.0 mph

Today
High -- | Low -- °F
--% Chance of Precip.
Yesterday
High -- | Low -- °F
Precip. -- in
7:06 AM 7:59 PM
Waxing Gibbous, 95% visible
Pressure 29.92 in
Visibility 10.0 miles
Clouds Clear
Heat Index 101 °F
Dew Point 79 °F
Humidity 77%
Rainfall 0.00 in
Snow Depth Not available.
UV 0.0 out of 12
Pollen 3.40 out of 12
Air Quality Not available.
Flu Activity Not available.
METAR KCGC 272255Z AUTO 00000KT 10SM CLR 30/23 A2992 RMK AO2
Pressure 29.92 in
Visibility 10.0 miles
Clouds Clear
Heat Index 101 °F
Dew Point 79 °F
Humidity 77%
Rainfall 0.00 in
Snow Depth Not available.
UV 0.0 out of 12
Pollen 3.40 out of 12
Air Quality Not available.
Flu Activity Not available.
METAR KCGC 272255Z AUTO 00000KT 10SM CLR 30/23 A2992 RMK AO2
Tropical Storm Erika remains unorganized as it travels through the northeast Caribbean Sea. The storm has already dumped 5-10 inches of rain on the Lesser Antilles, with more rain anticipated for Puerto Rico and Hispaniola. This will be much-needed rain for those islands. Erika is not forecast to reach hurricane strength until Monday when it curves northward along the east coast of Florida. Follow the live blog

10-Day Weather Forecast

×

Almanac

Astronomy

Aug. 27, 2015 Rise Set
Actual Time
Civil Twilight
Nautical Twilight
Astronomical Twilight
Moon
Length of Visible Light
Length of Day
Tomorrow will be .
, % of the Moon is Illuminated

Today's Extremes

State Highs State Lows

Community

WunderPhotos

Upload Photos

1,850,258 photos uploaded!

WunderBlogs® & News

Nearby

Air Quality

  Air Quality AQ Index Pollutant
Not available.

Snow Depth

Station Depth Elevation

Earthquake Activity

City Distance Mag. Time & Date
Minimum magnitude displayed is 2.5.

Coastal Water Temperatures

Place Temperature

Stations

Nearby Weather Stations

Station Location Temp. Windchill Dew Point Humidity Wind Precip. Elev Updated Type